Bodega Marine Reserve, California Weather observations

Data are for 10 minute period ending at time listed.
 Day   Time   Solar   Ave.   Ave.  Ave.  Vector  Max.   Baro.   Total    
  of    of     Rad.   Air    Rel.  Wind   Wind   Wind  Press.  Precip.   
Year   Day            Temp.  Hum.  Speed  Dir.   Gust                    
2014   (PST)  Kw/m2    F      %     mph   deg.    mph    mb.     in.     
-------------------------------------------------------------------------
 244   12:10   0.81   65.2    70    6.2   280     8.9   1008.5    0.00 
 244   12:20   0.81   65.9    67    6.2   278     8.9   1008.5    0.00 
 244   12:30   0.81   65.9    68    7.3   277    10.2   1008.5    0.00 
 244   12:40   0.81   66.3    67    7.7   289    11.9   1008.5    0.00 
 244   12:50   0.81   65.5    68    8.9   300    11.5   1008.5    0.00 
 244   13:00   0.80   64.8    70    9.3   300    12.3   1008.5    0.00 
 244   13:10   0.78   64.8    70    9.1   300    11.7   1008.1    0.00 
 244   13:20   0.78   64.6    70    9.8   302    12.8   1008.1    0.00 
 244   13:30   0.78   64.0    72   10.8   304    14.3   1007.8    0.00 
 244   13:40   0.76   64.3    72   10.8   303    13.8   1007.8    0.00 
 244   13:50   0.75   64.7    71   11.4   302    14.8   1007.8    0.00 
 244   14:00   0.73   63.6    74   13.1   307    16.1   1007.8    0.00 
 244   14:10   0.72   63.5    74   12.7   303    15.3   1007.5    0.00 
 244   14:20   0.70   63.2    75   12.9   306    16.9   1007.5    0.00 
 244   14:30   0.68   63.2    75   12.2   305    16.7   1007.5    0.00 
 244   14:40   0.66   62.9    76   14.1   305    17.8   1007.5    0.00 
 244   14:50   0.64   62.8    76   13.4   305    17.2   1007.1    0.00 
 244   15:00   0.61   62.6    77   14.1   305    18.3   1007.1    0.00 
 244   15:10   0.59   62.6    77   13.8   304    18.8   1007.1    0.00 
 244   15:20   0.56   62.4    78   14.9   302    19.4   1006.8    0.00 
 244   15:30   0.54   61.9    79   15.6   301    19.7   1006.8    0.00 
 244   15:40   0.51   62.0    79   14.2   302    18.7   1006.8    0.00 
 244   15:50   0.48   62.3    78   14.4   301    19.3   1006.8    0.00 
 244   16:00   0.42   61.8    79   14.6   302    19.1   1006.4    0.00 
 244   16:10   0.09   61.3    80   14.5   299    18.9   1006.4    0.00 
 244   16:20   0.17   61.2    80   14.8   302    18.6   1006.4    0.00 
 244   16:30   0.10   61.4    80   12.7   301    18.7   1006.4    0.00 
 244   16:40   0.18   61.4    80   12.4   292    17.8   1006.4    0.00 
 244   16:50   0.29   61.6    79   10.6   301    15.3   1006.4    0.00 
 244   17:00   0.28   60.8    81   12.5   308    15.7   1006.1    0.00 
 244   17:10   0.24   60.9    81    9.6   299    13.5   1006.1    0.00 
 244   17:20   0.21   60.7    81    9.7   290    13.3   1006.1    0.00 
 244   17:30   0.10   60.3    82    9.6   291    13.4   1005.8    0.00 
 244   17:40   0.07   59.9    83    9.1   292    12.6   1005.8    0.00 
 244   17:50   0.12   59.4    84    8.9   292    11.8   1005.8    0.00 
 244   18:00   0.09   59.1    85    7.9   288    11.4   1005.8    0.00 
 244   18:10   0.07   58.7    86    7.4   290    10.4   1005.4    0.00 
 244   18:20   0.05   58.2    87    7.2   287    10.1   1005.4    0.00 
 244   18:30   0.03   57.8    88    7.2   288     9.3   1005.4    0.00 
 244   18:40   0.01   57.3    89    6.6   292    10.7   1005.4    0.00 
 244   18:50   0.01   56.8    90    5.7   295     8.6   1005.4    0.00 
 244   19:00   0.00   56.6    90    5.5   298     8.0   1005.1    0.00 
 244   19:10   0.00   55.9    90    4.8   304     7.1   1005.1    0.00 
 244   19:20   0.00   55.4    91    4.6   299     5.8   1005.1    0.00 
 244   19:30   0.00   55.3    91    3.3   295     4.8   1005.1    0.00 
 244   19:40   0.00   55.1    91    2.4   292     3.9   1005.1    0.00 
 244   19:50   0.00   54.7    92    1.2   299     1.8   1005.1    0.00 
 244   20:00   0.00   54.6    92    1.2   305     2.1   1005.4    0.00 
 244   20:10   0.00   54.5    92    1.4   310     2.6   1005.4    0.00 
 244   20:20   0.00   54.4    92    0.4   306     2.0   1005.4    0.00 
 244   20:30   0.00   54.2    92    0.5   118     1.8   1005.4    0.00 
 244   20:40   0.00   53.7    93    1.8   134     2.3   1005.4    0.00 
 244   20:50   0.00   53.6    93    2.3   148     3.7   1005.4    0.00 
 244   21:00   0.00   54.2    94    3.5   148     5.2   1005.4    0.00 
 244   21:10   0.00   54.4    94    3.0   150     4.2   1005.4    0.00 
 244   21:20   0.00   54.9    94    4.5   148     5.6   1005.4    0.00 
 244   21:30   0.00   55.3    94    4.6   149     5.7   1005.4    0.00 
 244   21:40   0.00   55.3    94    3.9   133     6.8   1005.4    0.00 
 244   21:50   0.00   56.4    94    5.3   124     7.8   1005.4    0.00 
 244   22:00   0.00   56.9    94    5.6   123     8.3   1005.4    0.00 
 244   22:10   0.00   57.0    93    4.8   119     7.4   1005.4    0.00 
 244   22:20   0.00   57.1    93    4.6   119     9.2   1005.4    0.00 
 244   22:30   0.00   57.2    93    4.5   120     7.1   1005.4    0.00 
 244   22:40   0.00   57.3    93    5.9   126     8.8   1005.4    0.00 
 244   22:50   0.00   57.3    92    5.6   125     8.8   1005.4    0.00 
 244   23:00   0.00   57.3    92    4.7   121     7.9   1005.4    0.00 
 244   23:10   0.00   57.2    93    3.7   117     6.8   1005.4    0.00 
 244   23:20   0.00   57.1    93    4.0   116     7.6   1005.4    0.00 
 244   23:30   0.00   57.1    93    4.7   117     9.8   1005.4    0.00 
 244   23:40   0.00   57.2    93    6.8   124    10.8   1005.4    0.00 
 244   23:50   0.00   57.3    93    9.0   130    11.6   1005.4    0.00 
 245    0:00   0.00   57.3    93    8.0   127    10.7   1005.1    0.00 
 245    0:10   0.00   57.4    93    6.6   122    11.4   1005.4    0.00 
 245    0:20   0.00   57.3    93    7.3   123    11.1   1005.4    0.00 
 245    0:30   0.00   57.3    93    8.9   124    13.2   1005.1    0.00 
 245    0:40   0.00   57.3    93   10.8   127    14.0   1005.1    0.00 
 245    0:50   0.00   57.3    93   11.0   126    14.5   1005.1    0.00 
 245    1:00   0.00   57.2    93   12.7   132    15.7   1005.1    0.00 
 245    1:10   0.00   57.1    93   12.3   137    15.7   1005.1    0.00 
 245    1:20   0.00   56.9    94   13.8   131    17.0   1005.1    0.00 
 245    1:30   0.00   56.9    94   11.4   127    16.1   1005.1    0.00 
 245    1:40   0.00   56.8    94   11.1   128    14.2   1005.4    0.00 
 245    1:50   0.00   56.8    94   11.1   134    14.3   1005.4    0.00 
 245    2:00   0.01   56.7    94   10.8   136    14.0   1005.4    0.00 
 245    2:10   0.01   56.7    94   10.5   140    14.0   1005.4    0.00 
 245    2:20   0.01   56.6    94   10.8   135    13.3   1005.4    0.00 
 245    2:30   0.01   56.6    94   10.0   136    12.8   1005.4    0.00 
 245    2:40   0.01   56.6    94    9.1   137    11.9   1005.4    0.00 
 245    2:50   0.01   56.7    94    9.1   134    12.1   1005.4    0.00 
 245    3:00   0.01   56.7    94    9.1   128    12.7   1005.4    0.00 
 245    3:10   0.01   56.8    94    9.9   128    14.4   1005.4    0.00 
 245    3:20   0.01   56.9    94    8.9   124    13.4   1005.4    0.00 
 245    3:30   0.01   57.0    94    5.8   118    11.4   1005.4    0.00 
 245    3:40   0.01   57.1    94    7.7   103    12.1   1005.4    0.00 
 245    3:50   0.01   57.0    94    7.4    92     9.9   1005.4    0.00 
 245    4:00   0.01   57.0    94    6.4   107    10.2   1005.4    0.00 
 245    4:10   0.01   56.8    94    8.1   127    11.0   1005.8    0.00 
 245    4:20   0.01   56.7    95    5.5   120    10.1   1005.8    0.00 
 245    4:30   0.01   56.7    95    5.9   119     9.6   1005.8    0.00 
 245    4:40   0.01   56.3    95    7.1   127    12.0   1005.8    0.00 
 245    4:50   0.01   56.3    95    5.1   116    10.1   1005.8    0.00 
 245    5:00   0.01   56.4    95    3.9    89     8.1   1005.8    0.00 
 245    5:10   0.01   56.4    95    4.4    59     6.3   1006.1    0.00 
 245    5:20   0.01   56.3    95    5.9    73     9.3   1006.1    0.00 
 245    5:30   0.01   56.2    95    6.1    87     8.8   1006.1    0.00 
 245    5:40   0.01   56.2    95    4.6    95     7.2   1006.1    0.00 
 245    5:50   0.01   56.2    95    5.6    93     8.2   1006.1    0.00 
 245    6:00   0.01   56.0    95    4.8   111     7.5   1006.4    0.00 
 245    6:10   0.01   56.0    96    3.6   133     6.7   1006.4    0.00 
 245    6:20   0.02   56.3    96    4.0   109     7.1   1006.4    0.00 
 245    6:30   0.03   56.3    96    4.5   110     7.8   1006.4    0.00 
 245    6:40   0.03   56.3    96    4.4   118     7.5   1006.4    0.00 
 245    6:50   0.05   56.4    95    6.8   101    10.0   1006.4    0.00 
 245    7:00   0.06   56.5    96    5.4   104    10.9   1006.8    0.00 
 245    7:10   0.07   56.6    95    7.4   100    11.3   1006.8    0.00 
 245    7:20   0.07   56.7    95    6.7   104    12.1   1006.8    0.00 
 245    7:30   0.07   56.9    95    6.6   109    11.0   1006.8    0.00 
 245    7:40   0.07   57.1    95    7.1   115    12.1   1006.8    0.00 
 245    7:50   0.08   56.8    95    9.4   126    14.0   1007.1    0.00 
 245    8:00   0.09   56.6    96    7.8   123    12.3   1007.1    0.00 
 245    8:10   0.10   56.6    96    9.7   125    13.7   1007.1    0.00 
 245    8:20   0.12   56.6    96    7.0   124    14.0   1007.1    0.00 
 245    8:30   0.13   56.5    96    9.8   131    14.3   1007.5    0.00 
 245    8:40   0.15   56.4    96    7.7   129    13.2   1007.5    0.00 
 245    8:50   0.17   56.7    96    6.1   114    11.2   1007.5    0.00 
 245    9:00   0.15   57.1    95    6.1   105     9.9   1007.8    0.00 
 245    9:10   0.17   57.5    94    6.7   121    11.6   1007.8    0.00 
 245    9:20   0.19   57.5    94    7.4   123    11.8   1007.8    0.00 
 245    9:30   0.20   57.7    94    7.5   124    13.2   1007.8    0.00 
 245    9:40   0.23   57.7    93    7.5   121    12.8   1007.8    0.00 
 245    9:50   0.24   57.7    92    7.1   115    13.9   1007.8    0.00 
 245   10:00   0.22   57.7    92    9.1   116    14.6   1007.8    0.00 
 245   10:10   0.27   57.3    92    8.1   121    16.4   1007.8    0.00 
 245   10:20   0.24   57.6    92    8.3   122    13.6   1007.8    0.00 
 245   10:30   0.24   57.5    92    9.8   128    13.7   1007.8    0.00 
 245   10:40   0.25   57.8    92    9.9   139    13.5   1007.8    0.00 
 245   10:50   0.25   58.4    90    8.2   143    11.4   1008.1    0.00 
 245   11:00   0.32   58.7    88    9.6   148    12.9   1008.1    0.00 
 245   11:10   0.34   59.5    86    7.3   151    11.8   1008.1    0.00 
 245   11:20   0.32   59.7    86    7.9   145    11.3   1008.1    0.00 
 245   11:30   0.36   60.1    85    8.2   142    12.9   1008.1    0.00 
 245   11:40   0.34   59.9    85    9.4   142    13.7   1008.1    0.00 
 245   11:50   0.35   60.1    84    9.6   154    14.1   1008.1    0.00 
 245   12:00   0.38   59.9    84    8.7   154    13.6   1008.1    0.00 

Return to Bodega Marine Reserve graphs page.


Western Regional Climate Center,wrcc@dri.edu